Time;durP1;ratioP1;P1;durP2;ratioP2;P2;SDS_P1;SDS_P2;PMS_P1;PMS_P2;Temp;Humidity;BMP_temperature;BMP_pressure;BME280_temperature;BME280_humidity;BME280_pressure;Samples;Min_cycle;Max_cycle;Signal;HPM_P1;HPM_P2
2022/03/25 00:01:57;;;;;;;45.30;32.97;;;10.50;66.10;;;;;;5054866;28;20493;-67
2022/03/25 00:04:23;;;;;;;45.87;32.77;;;10.50;66.30;;;;;;5054091;28;20466;-67
2022/03/25 00:06:49;;;;;;;47.73;34.67;;;10.50;67.00;;;;;;5054708;28;20405;-67
2022/03/25 00:09:15;;;;;;;49.93;35.80;;;10.40;67.30;;;;;;5053978;28;20478;-67
2022/03/25 00:11:41;;;;;;;44.77;32.77;;;10.40;67.60;;;;;;5054281;28;20411;-67
2022/03/25 00:14:06;;;;;;;46.63;32.60;;;10.30;67.30;;;;;;5053945;28;20172;-67
2022/03/25 00:16:32;;;;;;;41.53;31.80;;;10.30;67.40;;;;;;5054443;28;20174;-68
2022/03/25 00:18:58;;;;;;;48.60;34.03;;;10.30;67.60;;;;;;5054081;28;20178;-67
2022/03/25 00:21:24;;;;;;;44.63;32.80;;;10.20;68.30;;;;;;5052814;28;20661;-67
2022/03/25 00:23:50;;;;;;;45.93;33.07;;;10.20;68.50;;;;;;5054314;28;20496;-67
2022/03/25 00:26:16;;;;;;;45.23;33.30;;;10.20;68.40;;;;;;5053957;28;20201;-67
2022/03/25 00:28:42;;;;;;;45.90;33.10;;;10.10;68.10;;;;;;5052005;28;20200;-67
2022/03/25 00:31:07;;;;;;;56.13;34.10;;;10.10;68.20;;;;;;5053275;28;20173;-67
2022/03/25 00:33:34;;;;;;;43.57;31.90;;;10.00;68.50;;;;;;5054179;28;20409;-67
2022/03/25 00:36:01;;;;;;;49.23;35.00;;;10.00;68.20;;;;;;5054080;28;20465;-67
2022/03/25 00:38:27;;;;;;;47.57;34.00;;;10.00;68.90;;;;;;5053472;28;20411;-67
2022/03/25 00:40:54;;;;;;;46.00;33.17;;;10.00;68.90;;;;;;5053983;28;20401;-67
2022/03/25 00:43:21;;;;;;;44.27;33.53;;;10.00;68.60;;;;;;5053579;28;20497;-67
2022/03/25 00:45:46;;;;;;;43.40;31.97;;;9.90;70.20;;;;;;5054181;28;20562;-67
2022/03/25 00:48:13;;;;;;;44.83;33.13;;;9.90;70.20;;;;;;5053058;28;20921;-67
2022/03/25 00:50:40;;;;;;;48.43;34.20;;;9.90;70.00;;;;;;5053794;28;20446;-67
2022/03/25 00:53:06;;;;;;;45.63;34.07;;;9.80;70.30;;;;;;5053139;28;20929;-68
2022/03/25 00:55:32;;;;;;;46.30;34.13;;;9.80;70.90;;;;;;5053506;28;20889;-67
2022/03/25 00:57:58;;;;;;;42.80;33.57;;;9.70;71.60;;;;;;5053331;28;20404;-67
2022/03/25 01:00:24;;;;;;;46.03;34.10;;;9.70;71.60;;;;;;5053089;28;20406;-67
2022/03/25 01:02:51;;;;;;;46.00;33.67;;;9.70;71.60;;;;;;5053220;28;20885;-67
2022/03/25 01:05:19;;;;;;;45.53;31.80;;;9.70;71.60;;;;;;5052952;28;20453;-67
2022/03/25 01:07:46;;;;;;;45.43;32.90;;;9.70;72.10;;;;;;5053609;28;20412;-67
2022/03/25 01:10:13;;;;;;;47.17;33.17;;;9.60;72.30;;;;;;5052830;28;20450;-67
2022/03/25 01:12:39;;;;;;;46.23;32.90;;;9.60;72.40;;;;;;5053360;28;20405;-67
2022/03/25 01:15:06;;;;;;;50.17;33.40;;;9.50;72.70;;;;;;5053435;28;20415;-67
2022/03/25 01:17:31;;;;;;;43.10;32.20;;;9.50;73.00;;;;;;5052106;28;20475;-67
2022/03/25 01:19:57;;;;;;;47.77;33.87;;;9.50;73.10;;;;;;5053356;28;20448;-67
2022/03/25 01:22:23;;;;;;;45.20;32.90;;;9.40;73.10;;;;;;5052610;28;20166;-67
2022/03/25 01:24:49;;;;;;;43.87;33.33;;;9.40;73.90;;;;;;5053130;28;20415;-67
2022/03/25 01:27:17;;;;;;;44.40;33.53;;;9.40;74.20;;;;;;5052562;28;20224;-67
2022/03/25 01:29:43;;;;;;;45.47;33.17;;;9.40;74.20;;;;;;5053066;28;20441;-67
2022/03/25 01:32:09;;;;;;;46.87;31.63;;;9.40;74.50;;;;;;5052470;28;20437;-68
2022/03/25 01:34:35;;;;;;;43.60;32.83;;;9.20;74.40;;;;;;5053309;28;20409;-67
2022/03/25 01:37:02;;;;;;;43.10;31.63;;;9.50;75.00;;;;;;5053040;28;20393;-67
2022/03/25 01:39:27;;;;;;;44.60;33.13;;;9.30;75.40;;;;;;5052030;28;20414;-67
2022/03/25 01:41:54;;;;;;;44.73;33.27;;;9.30;75.70;;;;;;5052876;28;20714;-67
2022/03/25 01:44:30;;;;;;;44.00;32.13;;;9.30;75.70;;;;;;5052320;28;20554;-67
2022/03/25 01:46:58;;;;;;;44.00;32.73;;;9.20;75.70;;;;;;5052819;28;20407;-67
2022/03/25 01:49:24;;;;;;;47.07;32.00;;;9.20;75.80;;;;;;5052125;28;20444;-67
2022/03/25 01:51:52;;;;;;;46.63;31.70;;;9.20;76.10;;;;;;5052741;28;20408;-67
2022/03/25 01:54:24;;;;;;;42.37;32.70;;;9.20;76.60;;;;;;5052153;28;20408;-67
2022/03/25 01:56:55;;;;;;;45.33;32.17;;;9.10;76.80;;;;;;5052816;28;20420;-67
2022/03/25 01:59:22;;;;;;;46.83;33.63;;;9.20;77.20;;;;;;5052076;28;20410;-67
2022/03/25 02:01:49;;;;;;;49.00;33.47;;;9.10;77.50;;;;;;5051121;28;20420;-67
2022/03/25 02:04:15;;;;;;;48.63;32.47;;;9.10;78.20;;;;;;5051804;28;20906;-67
2022/03/25 02:06:41;;;;;;;45.20;32.40;;;9.00;78.00;;;;;;5052701;28;20788;-67
2022/03/25 02:09:07;;;;;;;44.10;32.13;;;9.00;77.90;;;;;;5051197;28;20463;-67
2022/03/25 02:11:35;;;;;;;44.47;30.83;;;9.00;78.20;;;;;;5051940;28;20461;-67
2022/03/25 02:14:02;;;;;;;44.33;32.77;;;8.90;78.70;;;;;;5051391;28;20220;-67
2022/03/25 02:16:39;;;;;;;45.83;33.10;;;8.90;78.80;;;;;;5051908;28;20400;-67
2022/03/25 02:19:05;;;;;;;43.97;31.20;;;8.80;79.10;;;;;;5052806;28;20817;-67
2022/03/25 02:21:32;;;;;;;43.40;31.93;;;8.90;79.40;;;;;;5051428;28;20966;-67
2022/03/25 02:23:59;;;;;;;42.90;31.50;;;9.00;79.60;;;;;;5052271;28;20892;-67
2022/03/25 02:26:27;;;;;;;41.20;30.67;;;8.60;79.60;;;;;;5051902;28;20416;-67
2022/03/25 02:28:54;;;;;;;43.47;32.83;;;8.80;79.80;;;;;;5051040;28;20463;-67
2022/03/25 02:31:20;;;;;;;44.97;31.70;;;8.80;80.40;;;;;;5052243;28;20416;-67
2022/03/25 02:33:46;;;;;;;46.37;33.80;;;8.80;80.60;;;;;;5052300;28;20412;-67
2022/03/25 02:36:12;;;;;;;44.77;31.70;;;8.80;80.70;;;;;;5051822;28;20400;-68
2022/03/25 02:38:38;;;;;;;44.57;32.77;;;8.80;80.40;;;;;;5052032;28;20211;-67
2022/03/25 02:41:04;;;;;;;41.57;30.87;;;8.70;80.30;;;;;;5052242;28;20284;-67
2022/03/25 02:43:30;;;;;;;44.13;31.83;;;8.80;80.70;;;;;;5051902;28;20268;-67
2022/03/25 02:45:56;;;;;;;44.40;32.23;;;8.70;80.90;;;;;;5052113;28;20411;-67
2022/03/25 02:48:22;;;;;;;43.33;31.87;;;8.70;81.30;;;;;;5051623;28;20401;-67
2022/03/25 02:50:48;;;;;;;42.03;31.00;;;8.60;81.10;;;;;;5052132;28;20660;-67
2022/03/25 02:53:15;;;;;;;42.47;30.93;;;8.60;81.00;;;;;;5054167;28;20511;-67
2022/03/25 02:55:42;;;;;;;43.27;31.83;;;8.60;81.30;;;;;;5054642;28;20916;-67
2022/03/25 02:58:08;;;;;;;54.07;33.17;;;8.60;81.50;;;;;;5055939;28;20412;-67
2022/03/25 03:00:34;;;;;;;44.53;31.10;;;8.50;82.10;;;;;;5054897;28;20941;-67
2022/03/25 03:03:01;;;;;;;45.00;30.80;;;8.50;83.10;;;;;;5054448;28;20415;-67
2022/03/25 03:05:31;;;;;;;47.40;31.83;;;8.50;82.20;;;;;;5055506;28;20403;-67
2022/03/25 03:07:57;;;;;;;46.23;33.03;;;8.50;82.70;;;;;;5055494;28;20411;-67
2022/03/25 03:10:24;;;;;;;42.33;30.40;;;8.50;82.70;;;;;;5054744;28;20946;-67
2022/03/25 03:12:52;;;;;;;47.97;33.27;;;8.50;82.90;;;;;;5055363;28;20876;-67
2022/03/25 03:15:18;;;;;;;45.93;33.17;;;8.40;83.00;;;;;;5055001;28;20800;-67
2022/03/25 03:17:47;;;;;;;44.70;31.27;;;8.40;82.90;;;;;;5055366;28;20906;-67
2022/03/25 03:20:16;;;;;;;42.00;30.73;;;8.40;83.00;;;;;;5055025;28;20527;-75
2022/03/25 03:22:43;;;;;;;45.57;30.90;;;8.40;83.10;;;;;;5055524;28;20480;-67
2022/03/25 03:25:12;;;;;;;46.67;33.63;;;8.40;83.00;;;;;;5055454;28;20892;-67
2022/03/25 03:27:39;;;;;;;47.93;34.40;;;8.40;83.10;;;;;;5055176;28;20438;-67
2022/03/25 03:30:07;;;;;;;48.23;33.80;;;8.40;83.70;;;;;;5055091;28;20467;-67
2022/03/25 03:32:32;;;;;;;45.43;33.37;;;8.30;83.60;;;;;;5054674;28;20447;-67
2022/03/25 03:34:58;;;;;;;46.83;32.50;;;8.30;84.40;;;;;;5055231;28;20435;-67
2022/03/25 03:37:25;;;;;;;41.97;30.03;;;8.30;83.70;;;;;;5054610;28;20261;-67
2022/03/25 03:39:51;;;;;;;44.43;31.90;;;8.30;83.90;;;;;;5055193;28;20188;-67
2022/03/25 03:42:16;;;;;;;44.57;31.17;;;8.20;84.10;;;;;;5054549;28;20733;-67
2022/03/25 03:44:42;;;;;;;48.10;32.07;;;8.30;84.80;;;;;;5055066;28;20419;-67
2022/03/25 03:47:10;;;;;;;47.17;32.00;;;8.30;84.70;;;;;;5055088;28;20457;-67
2022/03/25 03:49:37;;;;;;;47.33;31.53;;;8.30;84.30;;;;;;5054382;28;20258;-67
2022/03/25 03:52:04;;;;;;;48.10;30.23;;;8.30;84.20;;;;;;5054967;28;20404;-67
2022/03/25 03:54:32;;;;;;;39.47;29.40;;;8.20;84.40;;;;;;5053961;28;20411;-67
2022/03/25 03:56:58;;;;;;;40.53;30.53;;;8.20;83.60;;;;;;5054947;28;20400;-67
2022/03/25 03:59:24;;;;;;;42.50;28.63;;;8.10;83.50;;;;;;5054485;28;20408;-67
2022/03/25 04:01:49;;;;;;;41.90;28.30;;;8.10;83.50;;;;;;5055113;28;20430;-67
2022/03/25 04:04:16;;;;;;;36.27;27.30;;;8.10;83.60;;;;;;5054698;28;20185;-67
2022/03/25 04:06:42;;;;;;;42.83;27.90;;;8.10;83.60;;;;;;5054684;28;20211;-67
2022/03/25 04:09:07;;;;;;;41.27;28.27;;;7.70;82.70;;;;;;5054541;28;20820;-67
2022/03/25 04:11:33;;;;;;;41.13;27.10;;;8.10;83.30;;;;;;5053730;28;20169;-67
2022/03/25 04:13:59;;;;;;;41.40;29.67;;;8.10;83.20;;;;;;5054517;28;20178;-67
2022/03/25 04:16:24;;;;;;;49.83;30.73;;;8.00;83.80;;;;;;5054272;28;20169;-67
2022/03/25 04:18:50;;;;;;;41.87;29.40;;;8.00;84.40;;;;;;5054449;28;20606;-67
2022/03/25 04:21:16;;;;;;;40.10;29.20;;;8.10;85.00;;;;;;5054437;28;20304;-67
2022/03/25 04:23:42;;;;;;;35.40;28.20;;;8.00;84.70;;;;;;5054196;28;20829;-67
2022/03/25 04:26:08;;;;;;;41.43;28.67;;;8.00;84.20;;;;;;5054442;28;20455;-67
2022/03/25 04:28:34;;;;;;;40.20;28.17;;;8.00;84.30;;;;;;5052432;28;20185;-67
2022/03/25 04:31:00;;;;;;;38.43;28.90;;;8.00;84.60;;;;;;5054288;28;20754;-67
2022/03/25 04:33:26;;;;;;;45.37;28.87;;;8.00;85.10;;;;;;5052099;28;20185;-67
2022/03/25 04:35:51;;;;;;;40.90;29.23;;;8.00;85.20;;;;;;5054063;28;20234;-67
2022/03/25 04:38:17;;;;;;;43.33;29.57;;;8.00;85.10;;;;;;5054032;28;20409;-67
2022/03/25 04:40:43;;;;;;;46.00;29.80;;;7.90;84.80;;;;;;5052767;28;20185;-67
2022/03/25 04:43:09;;;;;;;42.30;28.90;;;7.90;84.60;;;;;;5053942;28;20498;-67
2022/03/25 04:45:35;;;;;;;42.83;28.77;;;7.90;84.90;;;;;;5053325;28;20204;-67
2022/03/25 04:48:03;;;;;;;40.57;28.20;;;7.80;85.10;;;;;;5053609;28;20184;-67
2022/03/25 04:50:28;;;;;;;42.60;28.50;;;7.80;85.90;;;;;;5053220;28;20531;-67
2022/03/25 04:52:54;;;;;;;43.33;29.47;;;7.70;86.40;;;;;;5053767;28;20486;-66
2022/03/25 04:55:21;;;;;;;43.43;29.20;;;7.70;86.50;;;;;;5052844;28;20389;-67
2022/03/25 04:57:47;;;;;;;37.50;27.50;;;7.60;86.00;;;;;;5052213;28;20180;-66
2022/03/25 05:00:14;;;;;;;44.63;29.43;;;7.60;86.00;;;;;;5053330;28;20425;-66
2022/03/25 05:02:39;;;;;;;43.77;30.80;;;7.60;86.70;;;;;;5053036;28;20808;-66
2022/03/25 05:05:06;;;;;;;47.97;30.63;;;7.60;87.40;;;;;;5053814;28;20465;-66
2022/03/25 05:07:31;;;;;;;44.93;30.97;;;7.50;86.90;;;;;;5052864;28;20252;-66
2022/03/25 05:10:01;;;;;;;41.20;28.83;;;7.40;87.30;;;;;;5053480;28;20534;-66
2022/03/25 05:12:27;;;;;;;42.40;29.73;;;7.40;87.40;;;;;;5052715;28;20176;-66
2022/03/25 05:14:54;;;;;;;41.13;29.30;;;7.40;88.60;;;;;;5052527;28;20405;-66
2022/03/25 05:17:20;;;;;;;43.60;29.47;;;7.40;88.50;;;;;;5053030;28;20401;-66
2022/03/25 05:19:46;;;;;;;44.90;29.60;;;7.40;88.50;;;;;;5053178;28;20406;-67
2022/03/25 05:22:11;;;;;;;42.57;29.70;;;7.40;88.90;;;;;;5053346;28;20718;-66
2022/03/25 05:24:37;;;;;;;39.27;29.47;;;7.40;88.90;;;;;;5052201;28;20195;-66
2022/03/25 05:27:04;;;;;;;45.57;31.70;;;7.40;89.10;;;;;;5052584;28;20273;-66
2022/03/25 05:29:30;;;;;;;43.53;31.13;;;7.40;89.50;;;;;;5051976;28;20796;-66
2022/03/25 05:31:55;;;;;;;43.87;28.67;;;7.10;89.20;;;;;;5053007;28;20429;-66
2022/03/25 05:34:22;;;;;;;42.47;31.53;;;7.30;90.00;;;;;;5052847;28;20192;-74
2022/03/25 05:36:47;;;;;;;46.13;33.37;;;7.40;90.20;;;;;;5052947;28;20184;-66
2022/03/25 05:39:14;;;;;;;43.20;28.90;;;7.30;90.10;;;;;;5053158;28;20786;-66
2022/03/25 05:41:41;;;;;;;41.00;30.40;;;7.40;90.00;;;;;;5052212;28;20230;-66
2022/03/25 05:44:07;;;;;;;43.73;30.47;;;7.00;89.50;;;;;;5052829;28;20435;-66
2022/03/25 05:46:34;;;;;;;49.73;30.50;;;7.40;90.20;;;;;;5052454;28;20418;-67
2022/03/25 05:49:00;;;;;;;42.97;29.47;;;7.40;90.30;;;;;;5052646;28;20228;-67
2022/03/25 05:51:26;;;;;;;47.93;31.30;;;7.40;90.40;;;;;;5052183;28;20416;-67
2022/03/25 05:53:51;;;;;;;48.87;31.07;;;7.40;90.60;;;;;;5052680;28;20407;-66
2022/03/25 05:56:17;;;;;;;38.60;28.67;;;7.40;90.90;;;;;;5052469;28;20178;-66
2022/03/25 05:58:43;;;;;;;43.53;29.43;;;7.30;90.90;;;;;;5052251;28;20267;-66
2022/03/25 06:01:09;;;;;;;46.27;30.53;;;7.50;91.20;;;;;;5052632;28;20577;-66
2022/03/25 06:03:35;;;;;;;45.93;31.57;;;7.50;91.20;;;;;;5052245;28;20742;-66
2022/03/25 06:06:03;;;;;;;45.17;29.23;;;7.50;91.20;;;;;;5052798;28;20199;-66
2022/03/25 06:08:30;;;;;;;43.30;28.40;;;7.50;91.30;;;;;;5051952;28;20633;-67
2022/03/25 06:10:56;;;;;;;41.37;29.10;;;7.60;91.50;;;;;;5052412;28;20466;-66
2022/03/25 06:13:22;;;;;;;43.03;29.00;;;7.70;91.60;;;;;;5052494;28;20423;-66
2022/03/25 06:15:48;;;;;;;46.70;32.60;;;7.60;91.60;;;;;;5052182;28;20412;-66
2022/03/25 06:18:15;;;;;;;44.00;31.87;;;7.60;91.80;;;;;;5052073;28;20905;-66
2022/03/25 06:20:40;;;;;;;49.63;33.83;;;7.70;91.80;;;;;;5051321;28;20450;-66
2022/03/25 06:23:06;;;;;;;47.67;31.80;;;7.80;91.80;;;;;;5052417;28;20495;-66
2022/03/25 06:25:32;;;;;;;42.07;29.53;;;7.80;91.60;;;;;;5051693;28;20187;-66
2022/03/25 06:27:59;;;;;;;43.97;27.97;;;7.70;91.60;;;;;;5054696;28;20683;-66
2022/03/25 06:30:28;;;;;;;48.30;31.33;;;7.80;91.50;;;;;;5055514;28;20900;-68
2022/03/25 06:32:54;;;;;;;43.13;30.90;;;7.70;91.30;;;;;;5056308;28;20760;-67
2022/03/25 06:35:21;;;;;;;46.23;31.67;;;7.90;91.50;;;;;;5055989;28;20919;-66
2022/03/25 06:37:47;;;;;;;38.57;29.53;;;8.00;91.70;;;;;;5055569;28;20756;-66
2022/03/25 06:40:14;;;;;;;44.73;28.63;;;8.10;92.10;;;;;;5056173;28;20766;-66
2022/03/25 06:42:42;;;;;;;59.17;30.27;;;8.10;92.50;;;;;;5055769;28;20404;-67
2022/03/25 06:45:11;;;;;;;46.60;29.30;;;8.20;92.40;;;;;;5056041;28;20407;-66
2022/03/25 06:47:37;;;;;;;37.97;27.17;;;7.90;92.10;;;;;;5055309;28;20404;-66
2022/03/25 06:50:04;;;;;;;40.77;29.67;;;8.20;92.20;;;;;;5055870;28;20554;-66
2022/03/25 06:52:30;;;;;;;41.90;30.97;;;8.20;91.70;;;;;;5055191;28;20412;-67
2022/03/25 06:54:56;;;;;;;38.00;27.53;;;8.30;90.70;;;;;;5056005;28;20408;-66
2022/03/25 06:57:22;;;;;;;40.07;28.20;;;8.40;90.10;;;;;;5054695;28;20404;-66
2022/03/25 06:59:48;;;;;;;41.37;28.27;;;8.50;89.90;;;;;;5055056;28;20443;-67
2022/03/25 07:02:15;;;;;;;45.57;27.60;;;8.60;89.50;;;;;;5054815;28;20423;-66
2022/03/25 07:04:42;;;;;;;39.63;28.13;;;8.70;89.20;;;;;;5055374;28;20765;-67
2022/03/25 07:07:08;;;;;;;43.50;27.37;;;8.80;88.70;;;;;;5055686;28;20412;-66
2022/03/25 07:09:35;;;;;;;44.70;29.20;;;8.90;88.30;;;;;;5054975;28;20473;-67
2022/03/25 07:12:02;;;;;;;38.30;28.50;;;9.00;87.70;;;;;;5055561;28;20404;-66
2022/03/25 07:14:28;;;;;;;39.60;29.67;;;9.00;87.00;;;;;;5054971;28;20768;-67
2022/03/25 07:16:54;;;;;;;42.80;28.10;;;9.00;85.70;;;;;;5055495;28;20489;-66
2022/03/25 07:19:20;;;;;;;40.17;27.20;;;9.10;86.40;;;;;;5055461;28;20440;-66
2022/03/25 07:21:46;;;;;;;40.27;27.00;;;9.20;86.50;;;;;;5053788;28;20228;-67
2022/03/25 07:24:12;;;;;;;43.80;29.63;;;9.20;86.10;;;;;;5054149;28;20551;-66
2022/03/25 07:26:38;;;;;;;49.10;30.23;;;9.30;85.50;;;;;;5053545;28;20408;-66
2022/03/25 07:29:04;;;;;;;48.83;29.33;;;9.40;86.70;;;;;;5053786;28;20460;-66
2022/03/25 07:31:32;;;;;;;43.90;28.37;;;9.40;85.90;;;;;;5053623;28;20207;-67
2022/03/25 07:34:00;;;;;;;45.43;28.80;;;9.60;85.80;;;;;;5054084;28;20486;-66
2022/03/25 07:36:26;;;;;;;42.20;27.60;;;9.70;86.90;;;;;;5054043;28;20912;-67
2022/03/25 07:38:52;;;;;;;42.20;27.83;;;9.70;85.20;;;;;;5053197;28;20446;-66
2022/03/25 07:41:20;;;;;;;41.37;28.83;;;9.70;84.40;;;;;;5054204;28;20401;-67
2022/03/25 07:43:46;;;;;;;40.73;28.33;;;9.80;83.90;;;;;;5053318;28;20415;-67
2022/03/25 07:46:12;;;;;;;46.53;29.10;;;9.90;83.90;;;;;;5053645;28;20523;-67
2022/03/25 07:48:37;;;;;;;42.87;27.80;;;10.00;82.90;;;;;;5053160;28;20498;-67
2022/03/25 07:51:04;;;;;;;37.73;26.80;;;10.10;83.20;;;;;;5053709;28;20468;-66
2022/03/25 07:53:32;;;;;;;43.30;29.30;;;10.20;82.10;;;;;;5053108;28;20222;-74
2022/03/25 07:55:58;;;;;;;40.97;28.30;;;10.30;81.90;;;;;;5053716;28;20444;-67
2022/03/25 07:58:24;;;;;;;41.23;28.77;;;10.40;81.60;;;;;;5053669;28;20401;-67
2022/03/25 08:00:51;;;;;;;46.00;29.00;;;10.50;82.40;;;;;;5052524;28;20689;-67
2022/03/25 08:03:18;;;;;;;41.23;27.47;;;10.60;83.40;;;;;;5053273;28;20884;-66
2022/03/25 08:05:50;;;;;;;39.90;28.70;;;10.70;82.60;;;;;;5052556;28;20511;-66
2022/03/25 08:08:19;;;;;;;38.60;27.37;;;10.80;82.50;;;;;;5053607;28;20434;-66
2022/03/25 08:10:46;;;;;;;41.57;28.97;;;10.90;81.10;;;;;;5052850;28;20452;-67
2022/03/25 08:13:12;;;;;;;39.30;26.93;;;11.00;80.70;;;;;;5053876;28;20780;-66
2022/03/25 08:15:38;;;;;;;40.63;30.30;;;11.00;80.00;;;;;;5052489;28;20427;-66
2022/03/25 08:18:10;;;;;;;43.80;27.90;;;11.10;79.90;;;;;;5053310;28;20435;-66
2022/03/25 08:20:41;;;;;;;38.95;29.55;;;11.20;80.60;;;;;;5015246;28;1080239;-67
2022/03/25 08:23:11;;;;;;;35.23;27.50;;;11.30;79.30;;;;;;5054460;28;20174;-66
2022/03/25 08:28:22;;;;;;;38.77;28.70;;;11.50;78.00;;;;;;5054653;28;20402;-67
2022/03/25 08:30:48;;;;;;;40.80;31.90;;;11.70;78.40;;;;;;5053533;28;20503;-67
2022/03/25 08:33:14;;;;;;;46.57;34.30;;;11.80;78.60;;;;;;5054120;28;20170;-67
2022/03/25 08:35:41;;;;;;;43.50;31.40;;;11.90;78.70;;;;;;5053503;28;20742;-67
2022/03/25 08:38:07;;;;;;;39.50;29.53;;;12.00;77.70;;;;;;5053690;28;20900;-67
2022/03/25 08:40:34;;;;;;;37.20;28.50;;;12.10;76.50;;;;;;5053338;28;20404;-67
2022/03/25 08:43:04;;;;;;;38.73;26.60;;;12.10;77.30;;;;;;5053880;28;20491;-66
2022/03/25 08:45:31;;;;;;;40.97;26.77;;;12.20;78.00;;;;;;5053995;28;20409;-66
2022/03/25 08:47:58;;;;;;;35.93;28.03;;;12.30;75.60;;;;;;5052964;28;20422;-66
2022/03/25 08:50:24;;;;;;;33.97;26.90;;;12.30;74.50;;;;;;5051999;28;20473;-67
2022/03/25 08:52:51;;;;;;;35.60;25.33;;;12.20;74.30;;;;;;5052634;28;20782;-67
2022/03/25 08:55:19;;;;;;;39.83;27.90;;;12.30;75.80;;;;;;5053678;28;20408;-66
2022/03/25 08:57:46;;;;;;;37.33;26.57;;;12.40;73.60;;;;;;5052778;28;20854;-67
2022/03/25 09:00:17;;;;;;;36.03;25.13;;;12.50;72.50;;;;;;5053376;28;20413;-66
2022/03/25 09:02:44;;;;;;;36.40;28.37;;;12.60;73.30;;;;;;5052653;28;20977;-67
2022/03/25 09:05:11;;;;;;;33.30;25.50;;;12.90;76.10;;;;;;5053671;28;20417;-67
2022/03/25 09:07:38;;;;;;;36.93;27.20;;;12.90;73.50;;;;;;5052569;28;20913;-67
2022/03/25 09:10:05;;;;;;;34.60;26.47;;;13.10;73.10;;;;;;5053236;28;20954;-67
2022/03/25 09:12:31;;;;;;;36.37;25.17;;;13.10;72.50;;;;;;5053408;28;20414;-67
2022/03/25 09:14:57;;;;;;;34.77;26.73;;;13.30;75.10;;;;;;5052527;28;20483;-67
2022/03/25 09:17:23;;;;;;;32.43;24.60;;;13.50;73.20;;;;;;5051862;28;20517;-67
2022/03/25 09:19:49;;;;;;;33.80;25.57;;;13.70;71.00;;;;;;5052182;28;20254;-66
2022/03/25 09:22:15;;;;;;;34.83;25.27;;;13.90;69.30;;;;;;5053324;28;20178;-68
2022/03/25 09:24:40;;;;;;;35.30;24.70;;;14.10;69.60;;;;;;5052247;28;20180;-67
2022/03/25 09:27:06;;;;;;;35.03;25.40;;;14.30;74.30;;;;;;5052949;28;20408;-67
2022/03/25 09:29:32;;;;;;;35.30;27.53;;;14.50;73.40;;;;;;5052980;28;20225;-67
2022/03/25 09:31:57;;;;;;;33.70;25.43;;;14.70;72.50;;;;;;5051118;28;20210;-67
2022/03/25 09:37:07;;;;;;;37.30;26.53;;;15.20;68.50;;;;;;5053035;28;20199;-67
2022/03/25 09:39:33;;;;;;;34.00;24.07;;;15.60;64.70;;;;;;5052875;28;20510;-67
2022/03/25 09:41:59;;;;;;;31.03;24.07;;;15.80;65.90;;;;;;5052281;28;20608;-67
2022/03/25 09:44:25;;;;;;;29.30;22.23;;;16.20;65.30;;;;;;5053107;28;20178;-67
2022/03/25 09:46:51;;;;;;;26.40;21.00;;;16.60;61.20;;;;;;5051795;28;20470;-68
2022/03/25 09:49:18;;;;;;;31.27;22.37;;;16.90;60.20;;;;;;5052781;28;20460;-67
2022/03/25 09:51:44;;;;;;;28.50;23.17;;;17.20;56.30;;;;;;5052152;28;20434;-67
2022/03/25 09:54:13;;;;;;;26.03;22.27;;;17.40;55.30;;;;;;5051373;28;20424;-67
2022/03/25 09:56:40;;;;;;;23.70;19.80;;;17.40;55.80;;;;;;5052032;28;20412;-67
2022/03/25 09:59:06;;;;;;;31.87;22.60;;;17.60;54.70;;;;;;5052158;28;20424;-67
2022/03/25 10:01:33;;;;;;;26.90;21.73;;;17.70;53.00;;;;;;5034188;28;20855;-67
2022/03/25 10:03:58;;;;;;;29.33;20.90;;;17.80;54.40;;;;;;5051489;28;21043;-67
2022/03/25 10:06:24;;;;;;;31.20;22.90;;;17.90;54.00;;;;;;5051928;28;20427;-67
2022/03/25 10:08:59;;;;;;;25.80;20.40;;;18.30;53.80;;;;;;5051192;28;20182;-67
2022/03/25 10:11:35;;;;;;;23.10;20.60;;;18.60;53.80;;;;;;5052035;28;21033;-67
2022/03/25 10:14:14;;;;;;;29.90;20.87;;;18.80;52.40;;;;;;5052170;28;20487;-67
2022/03/25 10:16:45;;;;;;;23.53;20.67;;;19.00;52.90;;;;;;5051885;28;20405;-67
2022/03/25 10:19:12;;;;;;;24.77;20.33;;;19.30;53.10;;;;;;5052289;28;20884;-67
2022/03/25 10:21:59;;;;;;;23.87;20.27;;;19.50;52.10;;;;;;5052441;28;20491;-74
2022/03/25 10:24:52;;;;;;;24.23;19.27;;;19.70;49.40;;;;;;5052388;28;20416;-67
2022/03/25 10:27:30;;;;;;;25.43;18.60;;;20.00;51.70;;;;;;5052448;28;20436;-67
2022/03/25 10:29:56;;;;;;;22.17;17.10;;;20.30;49.60;;;;;;5051326;28;20984;-68
2022/03/25 10:32:26;;;;;;;19.70;16.67;;;20.40;48.50;;;;;;5052267;28;20421;-67
2022/03/25 10:35:09;;;;;;;20.53;15.63;;;20.50;46.00;;;;;;5051590;28;20422;-67
2022/03/25 10:37:54;;;;;;;20.37;15.80;;;20.60;47.20;;;;;;5052209;28;20424;-66
2022/03/25 10:40:20;;;;;;;20.77;15.60;;;20.80;45.90;;;;;;5052585;28;20753;-68
2022/03/25 10:43:08;;;;;;;20.67;15.40;;;20.90;46.50;;;;;;5051341;28;20412;-67
2022/03/25 10:45:40;;;;;;;22.23;15.80;;;21.00;47.00;;;;;;5052179;28;20554;-67
2022/03/25 10:48:17;;;;;;;21.50;17.90;;;21.10;46.40;;;;;;5052254;28;20491;-67
2022/03/25 10:51:04;;;;;;;19.03;17.03;;;21.20;45.60;;;;;;5051472;28;20452;-68
2022/03/25 10:53:32;;;;;;;16.57;14.80;;;21.20;45.90;;;;;;5051863;28;20958;-67
2022/03/25 10:56:06;;;;;;;22.80;16.03;;;21.20;45.70;;;;;;5051450;28;20905;-67
2022/03/25 10:58:34;;;;;;;21.37;17.70;;;21.20;45.30;;;;;;5051806;28;20412;-67
2022/03/25 11:01:01;;;;;;;20.20;16.40;;;21.30;44.70;;;;;;5051645;28;20456;-67
2022/03/25 11:03:27;;;;;;;18.43;15.37;;;21.30;45.00;;;;;;5051674;28;20920;-67
2022/03/25 11:05:54;;;;;;;21.43;16.50;;;21.30;46.20;;;;;;5051650;28;20412;-67
2022/03/25 11:08:21;;;;;;;20.60;15.93;;;21.40;44.70;;;;;;5050767;28;20404;-67
2022/03/25 11:10:47;;;;;;;20.70;15.53;;;21.40;44.40;;;;;;5050989;28;20492;-67
2022/03/25 11:13:13;;;;;;;20.97;17.33;;;21.40;43.80;;;;;;5052904;28;20422;-67
2022/03/25 11:15:39;;;;;;;23.53;16.10;;;21.40;45.50;;;;;;5055572;28;20416;-67
2022/03/25 11:18:08;;;;;;;20.97;16.23;;;21.50;45.30;;;;;;5054959;28;20261;-67
2022/03/25 11:20:35;;;;;;;18.43;16.43;;;21.50;45.80;;;;;;5055102;28;20451;-67
2022/03/25 11:23:13;;;;;;;21.73;16.43;;;21.50;45.40;;;;;;5054446;28;20820;-67
2022/03/25 11:25:50;;;;;;;19.63;17.60;;;21.40;44.70;;;;;;5055026;28;20470;-67
2022/03/25 11:28:19;;;;;;;20.20;16.50;;;21.60;45.00;;;;;;5054050;28;20419;-67
2022/03/25 11:30:56;;;;;;;18.77;16.67;;;21.50;44.50;;;;;;5054328;28;20578;-68
2022/03/25 11:33:22;;;;;;;24.83;17.50;;;21.60;45.60;;;;;;5055711;28;20411;-67
2022/03/25 11:35:48;;;;;;;19.70;14.73;;;21.80;46.70;;;;;;5054672;28;20419;-67
2022/03/25 11:38:18;;;;;;;18.70;16.80;;;21.60;45.70;;;;;;5054879;28;20622;-67
2022/03/25 11:40:51;;;;;;;21.07;17.37;;;21.50;45.90;;;;;;5054447;28;20262;-69
2022/03/25 11:43:23;;;;;;;25.93;18.40;;;21.50;44.90;;;;;;5054741;28;20523;-67
2022/03/25 11:45:58;;;;;;;20.10;17.70;;;21.60;44.70;;;;;;5053939;28;20416;-68
2022/03/25 11:48:24;;;;;;;20.90;16.53;;;21.50;45.40;;;;;;5054641;28;20423;-67
2022/03/25 11:50:50;;;;;;;18.13;16.17;;;21.30;44.30;;;;;;5053922;28;20460;-67
2022/03/25 11:53:16;;;;;;;18.93;16.90;;;21.10;45.30;;;;;;5054528;28;20204;-67
2022/03/25 11:56:12;;;;;;;17.53;14.43;;;20.90;44.50;;;;;;5054084;28;20416;-67
2022/03/25 11:58:54;;;;;;;15.63;13.27;;;20.80;44.50;;;;;;5054466;28;20208;-67
2022/03/25 12:01:25;;;;;;;16.10;12.77;;;20.80;43.70;;;;;;5054667;28;20757;-67
2022/03/25 12:03:56;;;;;;;13.83;12.33;;;20.90;43.90;;;;;;5054153;28;20506;-67
2022/03/25 12:06:59;;;;;;;17.63;14.73;;;21.00;45.20;;;;;;5054686;28;20417;-67
2022/03/25 12:09:35;;;;;;;13.53;12.10;;;21.20;43.80;;;;;;5054594;28;20463;-67
2022/03/25 12:12:01;;;;;;;15.87;14.20;;;21.10;42.20;;;;;;5053937;28;20433;-67
2022/03/25 12:14:31;;;;;;;17.83;14.80;;;20.80;42.50;;;;;;5054463;28;20423;-67
2022/03/25 12:17:01;;;;;;;18.00;14.30;;;20.70;43.00;;;;;;5053631;28;20174;-67
2022/03/25 12:19:26;;;;;;;16.20;14.40;;;20.60;42.50;;;;;;5054300;28;20500;-65
2022/03/25 12:21:54;;;;;;;20.90;15.67;;;20.80;45.80;;;;;;5053674;28;20500;-65
2022/03/25 12:24:20;;;;;;;19.03;13.90;;;20.90;44.40;;;;;;5052091;28;20552;-68
2022/03/25 12:26:58;;;;;;;17.03;14.87;;;21.00;42.30;;;;;;5053438;28;20412;-75
2022/03/25 12:29:31;;;;;;;16.43;14.73;;;21.10;42.30;;;;;;5054156;28;20482;-68
2022/03/25 12:32:02;;;;;;;18.00;14.50;;;21.00;41.60;;;;;;5053782;28;20420;-67
2022/03/25 12:35:00;;;;;;;17.13;14.00;;;21.00;42.10;;;;;;5054348;28;20435;-67
2022/03/25 12:37:39;;;;;;;16.73;14.93;;;20.90;43.00;;;;;;5054430;28;20777;-67
2022/03/25 12:40:15;;;;;;;20.60;15.93;;;20.60;42.40;;;;;;5052257;28;20546;-67
2022/03/25 12:42:42;;;;;;;18.83;16.77;;;20.60;42.20;;;;;;5053899;28;20416;-67